logo
Search for airport 
image banner adimage banner adimage banner ad
image banner ad

MMASI - Santa Ines

Located in Hermosillo, Mexico

ICAO - , IATA -

Data provided by Airmate  

General information

Coordinates: N29°5'35" W111°29'27"
Elevation is 449 feet MSL.
Magnetic variation is 8° East
View others Airports in Sonora

Operational data

Special qualification required
Current time UTC:
Current local time:
METAR: MMHO 180549Z 00000KT 10SM SKC 21/00 A2992 RMK SLP128 52008 958 HZY MSGTX MMMX
TAF: TAF MMHO 180532Z 1806/1906 20005KT P6SM SKC FM181900 27010KT P6SM SCT200 FM190000 20010KT P6SM SCT200
View NOTAMs / SUP AIP / TFR affecting this airport [VIEW]
Communications frequencies: [VIEW]

Runways:

RWY identifierQFULength (ft)Width (ft)SurfaceLDA (ft)
3613°3327135DIRT
18193°3327135DIRT

Airport contact information

Address: Hermosillo Mexico

Satellite view of MMASI